This is the latest recevied weather packets stored in our database for station/object IZ1HMT-3. If no packets are shown the sender has not sent any weather packets the latest 10 day(s).
| Time | Temp. | Humidity | Pressure | Rain* | Wind** | Luminosity | Snow |
|---|---|---|---|---|---|---|---|
| 1788432800 | 31.67° C | 51% | 1019.8 hPa | - | - | - | - |
| 1788432196 | 32.22° C | 50% | 1019.9 hPa | - | - | - | - |
| 1788431592 | 32.22° C | 49% | 1019.9 hPa | - | - | - | - |
| 1788430988 | 32.78° C | 48% | 1019.9 hPa | - | - | - | - |
| 1788430384 | 33.33° C | 47% | 1019.9 hPa | - | - | - | - |
| 1788428571 | 38.89° C | 37% | 1020 hPa | - | - | - | - |
| 1788427967 | 38.33° C | 37% | 1020 hPa | - | - | - | - |
| 1788427363 | 38.33° C | 38% | 1020 hPa | - | - | - | - |
| 1788426155 | 37.78° C | 39% | 1019.8 hPa | - | - | - | - |
| 1788425550 | 37.78° C | 38% | 1019.7 hPa | - | - | - | - |
| 1788423738 | 36.11° C | 40% | 1019.4 hPa | - | - | - | - |
| 1788423133 | 36.67° C | 40% | 1019.4 hPa | - | - | - | - |
| 1788421320 | 37.22° C | 38% | 1019 hPa | - | - | - | - |
| 1788420716 | 37.78° C | 38% | 1018.9 hPa | - | - | - | - |
| 1788420116 | 36.67° C | 39% | 1019 hPa | - | - | - | - |
| 1788418903 | 32.78° C | 50% | 1019.1 hPa | - | - | - | - |
| 1788400677 | 27.22° C | 61% | 1018.8 hPa | - | - | - | - |
| 1788400074 | 27.22° C | 61% | 1018.8 hPa | - | - | - | - |
| 1788398866 | 27.22° C | 61% | 1018.8 hPa | - | - | - | - |
| 1788398263 | 27.22° C | 61% | 1018.8 hPa | - | - | - | - |
| 1788397659 | 27.22° C | 62% | 1018.8 hPa | - | - | - | - |
| 1788397056 | 27.22° C | 61% | 1018.8 hPa | - | - | - | - |
| 1788395848 | 27.22° C | 61% | 1018.8 hPa | - | - | - | - |
| 1788395245 | 27.22° C | 62% | 1018.9 hPa | - | - | - | - |
| 1788394037 | 26.67° C | 62% | 1019 hPa | - | - | - | - |
* Rain since midnight (hover to see other rain measurements)
** Current wind speed in m/s (hover to see current wind gust speed)